sensor_id;sensor_type;location;lat;lon;timestamp;P1;durP1;ratioP1;P2;durP2;ratioP2
51913;SDS011;37940;53.002;6.930;2022-09-09T00:01:39;51.25;;;26.70;;
51913;SDS011;37940;53.002;6.930;2022-09-09T00:09:46;28.77;;;19.95;;
51913;SDS011;37940;53.002;6.930;2022-09-09T00:12:17;39.92;;;21.92;;
51913;SDS011;37940;53.002;6.930;2022-09-09T00:15:13;27.55;;;19.63;;
51913;SDS011;37940;53.002;6.930;2022-09-09T00:20:52;31.80;;;19.15;;
51913;SDS011;37940;53.002;6.930;2022-09-09T00:23:28;32.17;;;18.63;;
51913;SDS011;37940;53.002;6.930;2022-09-09T00:29:03;28.00;;;17.48;;
51913;SDS011;37940;53.002;6.930;2022-09-09T00:31:39;32.05;;;18.90;;
51913;SDS011;37940;53.002;6.930;2022-09-09T00:34:09;30.95;;;18.85;;
51913;SDS011;37940;53.002;6.930;2022-09-09T00:36:51;27.00;;;17.45;;
51913;SDS011;37940;53.002;6.930;2022-09-09T00:42:14;29.48;;;18.30;;
51913;SDS011;37940;53.002;6.930;2022-09-09T00:47:41;29.90;;;18.48;;
51913;SDS011;37940;53.002;6.930;2022-09-09T00:55:21;34.72;;;18.80;;
51913;SDS011;37940;53.002;6.930;2022-09-09T00:58:06;34.70;;;19.48;;
51913;SDS011;37940;53.002;6.930;2022-09-09T01:08:59;35.03;;;20.77;;
51913;SDS011;37940;53.002;6.930;2022-09-09T01:27:54;28.42;;;18.00;;
51913;SDS011;37940;53.002;6.930;2022-09-09T01:30:23;31.52;;;19.15;;
51913;SDS011;37940;53.002;6.930;2022-09-09T01:32:52;32.20;;;19.33;;
51913;SDS011;37940;53.002;6.930;2022-09-09T01:35:42;23.63;;;17.90;;
51913;SDS011;37940;53.002;6.930;2022-09-09T01:38:09;30.50;;;19.10;;
51913;SDS011;37940;53.002;6.930;2022-09-09T01:40:35;34.47;;;20.30;;
51913;SDS011;37940;53.002;6.930;2022-09-09T01:43:02;31.38;;;19.45;;
51913;SDS011;37940;53.002;6.930;2022-09-09T01:45:29;27.58;;;18.58;;
51913;SDS011;37940;53.002;6.930;2022-09-09T01:47:55;29.27;;;18.42;;
51913;SDS011;37940;53.002;6.930;2022-09-09T01:50:21;34.35;;;20.15;;
51913;SDS011;37940;53.002;6.930;2022-09-09T01:52:49;31.17;;;20.48;;
51913;SDS011;37940;53.002;6.930;2022-09-09T01:55:20;32.10;;;18.95;;
51913;SDS011;37940;53.002;6.930;2022-09-09T01:58:02;31.40;;;19.17;;
51913;SDS011;37940;53.002;6.930;2022-09-09T02:00:44;27.20;;;16.60;;
51913;SDS011;37940;53.002;6.930;2022-09-09T02:03:22;27.95;;;17.02;;
51913;SDS011;37940;53.002;6.930;2022-09-09T02:08:55;29.50;;;17.95;;
51913;SDS011;37940;53.002;6.930;2022-09-09T02:11:23;30.35;;;17.77;;
51913;SDS011;37940;53.002;6.930;2022-09-09T02:13:52;25.98;;;16.05;;
51913;SDS011;37940;53.002;6.930;2022-09-09T02:16:32;21.17;;;13.90;;
51913;SDS011;37940;53.002;6.930;2022-09-09T02:19:15;25.80;;;15.77;;
51913;SDS011;37940;53.002;6.930;2022-09-09T02:21:52;22.33;;;13.55;;
51913;SDS011;37940;53.002;6.930;2022-09-09T02:24:21;27.98;;;15.55;;
51913;SDS011;37940;53.002;6.930;2022-09-09T02:26:48;23.33;;;13.95;;
51913;SDS011;37940;53.002;6.930;2022-09-09T02:29:28;21.02;;;14.32;;
51913;SDS011;37940;53.002;6.930;2022-09-09T02:31:58;25.65;;;14.07;;
51913;SDS011;37940;53.002;6.930;2022-09-09T02:34:31;22.70;;;13.55;;
51913;SDS011;37940;53.002;6.930;2022-09-09T02:37:01;25.88;;;14.63;;
51913;SDS011;37940;53.002;6.930;2022-09-09T02:39:29;25.70;;;13.48;;
51913;SDS011;37940;53.002;6.930;2022-09-09T02:41:55;27.52;;;13.50;;
51913;SDS011;37940;53.002;6.930;2022-09-09T02:44:21;15.70;;;10.80;;
51913;SDS011;37940;53.002;6.930;2022-09-09T02:47:04;23.25;;;13.45;;
51913;SDS011;37940;53.002;6.930;2022-09-09T02:55:12;26.50;;;14.10;;
51913;SDS011;37940;53.002;6.930;2022-09-09T02:58:05;19.10;;;11.43;;
51913;SDS011;37940;53.002;6.930;2022-09-09T03:00:35;21.98;;;12.50;;
51913;SDS011;37940;53.002;6.930;2022-09-09T03:03:02;21.02;;;11.77;;
51913;SDS011;37940;53.002;6.930;2022-09-09T03:05:28;22.52;;;11.90;;
51913;SDS011;37940;53.002;6.930;2022-09-09T03:07:54;23.05;;;12.27;;
51913;SDS011;37940;53.002;6.930;2022-09-09T03:10:20;19.10;;;10.43;;
51913;SDS011;37940;53.002;6.930;2022-09-09T03:12:46;20.42;;;12.18;;
51913;SDS011;37940;53.002;6.930;2022-09-09T03:15:17;19.50;;;12.02;;
51913;SDS011;37940;53.002;6.930;2022-09-09T03:18:20;23.15;;;12.80;;
51913;SDS011;37940;53.002;6.930;2022-09-09T03:20:51;20.63;;;11.65;;
51913;SDS011;37940;53.002;6.930;2022-09-09T03:23:17;21.48;;;13.88;;
51913;SDS011;37940;53.002;6.930;2022-09-09T03:25:46;23.13;;;13.70;;
51913;SDS011;37940;53.002;6.930;2022-09-09T03:28:13;23.92;;;14.45;;
51913;SDS011;37940;53.002;6.930;2022-09-09T03:30:39;24.88;;;13.02;;
51913;SDS011;37940;53.002;6.930;2022-09-09T03:33:05;24.10;;;14.40;;
51913;SDS011;37940;53.002;6.930;2022-09-09T03:35:31;26.35;;;15.73;;
51913;SDS011;37940;53.002;6.930;2022-09-09T03:37:57;22.25;;;14.95;;
51913;SDS011;37940;53.002;6.930;2022-09-09T03:40:22;30.77;;;15.68;;
51913;SDS011;37940;53.002;6.930;2022-09-09T03:42:48;19.95;;;13.85;;
51913;SDS011;37940;53.002;6.930;2022-09-09T03:45:14;23.00;;;14.48;;
51913;SDS011;37940;53.002;6.930;2022-09-09T03:47:39;25.40;;;14.02;;
51913;SDS011;37940;53.002;6.930;2022-09-09T03:50:06;27.42;;;16.52;;
51913;SDS011;37940;53.002;6.930;2022-09-09T03:52:37;23.52;;;15.68;;
51913;SDS011;37940;53.002;6.930;2022-09-09T03:55:06;32.70;;;16.43;;
51913;SDS011;37940;53.002;6.930;2022-09-09T03:57:32;22.30;;;16.00;;
51913;SDS011;37940;53.002;6.930;2022-09-09T04:00:01;22.05;;;15.20;;
51913;SDS011;37940;53.002;6.930;2022-09-09T04:02:31;25.80;;;16.40;;
51913;SDS011;37940;53.002;6.930;2022-09-09T04:04:57;25.48;;;17.13;;
51913;SDS011;37940;53.002;6.930;2022-09-09T04:07:24;23.10;;;15.15;;
51913;SDS011;37940;53.002;6.930;2022-09-09T04:09:52;29.90;;;18.30;;
51913;SDS011;37940;53.002;6.930;2022-09-09T04:12:19;29.38;;;18.55;;
51913;SDS011;37940;53.002;6.930;2022-09-09T04:14:46;26.08;;;17.60;;
51913;SDS011;37940;53.002;6.930;2022-09-09T04:17:11;20.55;;;14.68;;
51913;SDS011;37940;53.002;6.930;2022-09-09T04:19:37;18.02;;;14.35;;
51913;SDS011;37940;53.002;6.930;2022-09-09T04:22:03;20.95;;;14.05;;
51913;SDS011;37940;53.002;6.930;2022-09-09T04:24:29;21.75;;;13.95;;
51913;SDS011;37940;53.002;6.930;2022-09-09T04:26:54;17.77;;;11.95;;
51913;SDS011;37940;53.002;6.930;2022-09-09T04:29:20;24.38;;;13.30;;
51913;SDS011;37940;53.002;6.930;2022-09-09T04:31:46;15.35;;;11.13;;
51913;SDS011;37940;53.002;6.930;2022-09-09T04:34:11;12.65;;;9.50;;
51913;SDS011;37940;53.002;6.930;2022-09-09T04:36:37;14.00;;;9.43;;
51913;SDS011;37940;53.002;6.930;2022-09-09T04:39:04;13.70;;;8.43;;
51913;SDS011;37940;53.002;6.930;2022-09-09T04:41:30;10.90;;;7.57;;
51913;SDS011;37940;53.002;6.930;2022-09-09T04:43:56;13.73;;;8.25;;
51913;SDS011;37940;53.002;6.930;2022-09-09T04:46:22;12.73;;;7.60;;
51913;SDS011;37940;53.002;6.930;2022-09-09T04:48:49;10.10;;;6.82;;
51913;SDS011;37940;53.002;6.930;2022-09-09T04:51:15;12.75;;;7.15;;
51913;SDS011;37940;53.002;6.930;2022-09-09T04:53:41;14.13;;;7.50;;
51913;SDS011;37940;53.002;6.930;2022-09-09T04:56:08;13.40;;;8.02;;
51913;SDS011;37940;53.002;6.930;2022-09-09T04:58:36;15.32;;;9.30;;
51913;SDS011;37940;53.002;6.930;2022-09-09T05:01:07;13.38;;;9.45;;
51913;SDS011;37940;53.002;6.930;2022-09-09T05:03:37;12.50;;;8.63;;
51913;SDS011;37940;53.002;6.930;2022-09-09T05:08:30;19.27;;;11.40;;
51913;SDS011;37940;53.002;6.930;2022-09-09T05:10:56;15.75;;;9.57;;
51913;SDS011;37940;53.002;6.930;2022-09-09T05:13:24;17.55;;;10.20;;
51913;SDS011;37940;53.002;6.930;2022-09-09T05:15:52;20.40;;;11.48;;
51913;SDS011;37940;53.002;6.930;2022-09-09T05:18:18;21.02;;;10.52;;
51913;SDS011;37940;53.002;6.930;2022-09-09T05:20:44;15.65;;;10.15;;
51913;SDS011;37940;53.002;6.930;2022-09-09T05:23:10;13.73;;;9.30;;
51913;SDS011;37940;53.002;6.930;2022-09-09T05:25:38;13.52;;;9.20;;
51913;SDS011;37940;53.002;6.930;2022-09-09T05:28:06;14.68;;;9.70;;
51913;SDS011;37940;53.002;6.930;2022-09-09T05:30:33;16.17;;;10.35;;
51913;SDS011;37940;53.002;6.930;2022-09-09T05:32:59;17.13;;;10.45;;
51913;SDS011;37940;53.002;6.930;2022-09-09T05:35:25;17.65;;;9.95;;
51913;SDS011;37940;53.002;6.930;2022-09-09T05:37:50;19.20;;;10.63;;
51913;SDS011;37940;53.002;6.930;2022-09-09T05:40:16;14.02;;;10.27;;
51913;SDS011;37940;53.002;6.930;2022-09-09T05:42:42;13.45;;;10.02;;
51913;SDS011;37940;53.002;6.930;2022-09-09T05:45:08;15.02;;;11.23;;
51913;SDS011;37940;53.002;6.930;2022-09-09T05:47:34;14.85;;;10.55;;
51913;SDS011;37940;53.002;6.930;2022-09-09T05:50:02;15.18;;;9.55;;
51913;SDS011;37940;53.002;6.930;2022-09-09T05:52:28;15.00;;;10.43;;
51913;SDS011;37940;53.002;6.930;2022-09-09T05:54:54;14.48;;;9.85;;
51913;SDS011;37940;53.002;6.930;2022-09-09T05:57:21;16.70;;;10.50;;
51913;SDS011;37940;53.002;6.930;2022-09-09T05:59:47;21.27;;;11.68;;
51913;SDS011;37940;53.002;6.930;2022-09-09T06:02:13;16.50;;;11.07;;
51913;SDS011;37940;53.002;6.930;2022-09-09T06:04:39;20.88;;;12.30;;
51913;SDS011;37940;53.002;6.930;2022-09-09T06:07:05;17.40;;;12.20;;
51913;SDS011;37940;53.002;6.930;2022-09-09T06:09:31;17.15;;;11.25;;
51913;SDS011;37940;53.002;6.930;2022-09-09T06:11:56;19.48;;;11.85;;
51913;SDS011;37940;53.002;6.930;2022-09-09T06:14:23;23.35;;;12.35;;
51913;SDS011;37940;53.002;6.930;2022-09-09T06:16:50;14.25;;;11.05;;
51913;SDS011;37940;53.002;6.930;2022-09-09T06:19:16;17.70;;;11.88;;
51913;SDS011;37940;53.002;6.930;2022-09-09T06:21:43;15.55;;;10.07;;
51913;SDS011;37940;53.002;6.930;2022-09-09T06:24:09;16.95;;;12.00;;
51913;SDS011;37940;53.002;6.930;2022-09-09T06:26:36;19.33;;;11.52;;
51913;SDS011;37940;53.002;6.930;2022-09-09T06:29:06;16.85;;;10.77;;
51913;SDS011;37940;53.002;6.930;2022-09-09T06:31:33;16.67;;;11.68;;
51913;SDS011;37940;53.002;6.930;2022-09-09T06:34:01;16.92;;;10.43;;
51913;SDS011;37940;53.002;6.930;2022-09-09T06:36:32;16.13;;;10.40;;
51913;SDS011;37940;53.002;6.930;2022-09-09T06:38:59;15.55;;;11.48;;
51913;SDS011;37940;53.002;6.930;2022-09-09T06:41:26;17.08;;;10.90;;
51913;SDS011;37940;53.002;6.930;2022-09-09T06:43:53;13.13;;;9.48;;
51913;SDS011;37940;53.002;6.930;2022-09-09T06:46:30;13.38;;;9.48;;
51913;SDS011;37940;53.002;6.930;2022-09-09T06:48:58;13.25;;;9.50;;
51913;SDS011;37940;53.002;6.930;2022-09-09T06:51:34;13.70;;;8.77;;
51913;SDS011;37940;53.002;6.930;2022-09-09T06:54:01;10.43;;;7.82;;
51913;SDS011;37940;53.002;6.930;2022-09-09T06:56:35;11.00;;;7.45;;
51913;SDS011;37940;53.002;6.930;2022-09-09T06:59:03;12.82;;;7.78;;
51913;SDS011;37940;53.002;6.930;2022-09-09T07:01:34;9.75;;;7.05;;
51913;SDS011;37940;53.002;6.930;2022-09-09T07:04:01;9.98;;;7.60;;
51913;SDS011;37940;53.002;6.930;2022-09-09T07:06:37;10.25;;;7.20;;
51913;SDS011;37940;53.002;6.930;2022-09-09T07:09:06;10.45;;;6.28;;
51913;SDS011;37940;53.002;6.930;2022-09-09T07:11:34;11.20;;;6.38;;
51913;SDS011;37940;53.002;6.930;2022-09-09T07:16:33;8.23;;;6.18;;
51913;SDS011;37940;53.002;6.930;2022-09-09T07:19:00;9.15;;;5.90;;
51913;SDS011;37940;53.002;6.930;2022-09-09T07:21:27;8.82;;;5.50;;
51913;SDS011;37940;53.002;6.930;2022-09-09T07:23:53;8.82;;;5.82;;
51913;SDS011;37940;53.002;6.930;2022-09-09T07:26:21;10.52;;;5.95;;
51913;SDS011;37940;53.002;6.930;2022-09-09T07:28:48;7.88;;;5.28;;
51913;SDS011;37940;53.002;6.930;2022-09-09T07:31:15;8.82;;;6.43;;
51913;SDS011;37940;53.002;6.930;2022-09-09T07:33:51;8.02;;;5.22;;
51913;SDS011;37940;53.002;6.930;2022-09-09T07:36:24;10.88;;;5.82;;
51913;SDS011;37940;53.002;6.930;2022-09-09T07:38:53;7.38;;;5.03;;
51913;SDS011;37940;53.002;6.930;2022-09-09T07:41:25;9.27;;;6.10;;
51913;SDS011;37940;53.002;6.930;2022-09-09T07:43:52;11.02;;;5.22;;
51913;SDS011;37940;53.002;6.930;2022-09-09T07:46:22;10.05;;;5.00;;
51913;SDS011;37940;53.002;6.930;2022-09-09T07:48:51;8.00;;;4.85;;
51913;SDS011;37940;53.002;6.930;2022-09-09T07:51:20;8.07;;;4.78;;
51913;SDS011;37940;53.002;6.930;2022-09-09T07:53:54;8.13;;;5.47;;
51913;SDS011;37940;53.002;6.930;2022-09-09T07:56:25;9.32;;;5.20;;
51913;SDS011;37940;53.002;6.930;2022-09-09T07:58:52;11.07;;;5.35;;
51913;SDS011;37940;53.002;6.930;2022-09-09T08:01:29;8.80;;;5.60;;
51913;SDS011;37940;53.002;6.930;2022-09-09T08:04:01;9.68;;;5.35;;
51913;SDS011;37940;53.002;6.930;2022-09-09T08:06:29;12.35;;;5.85;;
51913;SDS011;37940;53.002;6.930;2022-09-09T08:09:00;8.57;;;5.22;;
51913;SDS011;37940;53.002;6.930;2022-09-09T08:11:27;6.90;;;4.68;;
51913;SDS011;37940;53.002;6.930;2022-09-09T08:13:54;6.75;;;4.80;;
51913;SDS011;37940;53.002;6.930;2022-09-09T08:16:21;7.95;;;5.05;;
51913;SDS011;37940;53.002;6.930;2022-09-09T08:18:52;12.05;;;4.82;;
51913;SDS011;37940;53.002;6.930;2022-09-09T08:21:24;7.95;;;5.00;;
51913;SDS011;37940;53.002;6.930;2022-09-09T08:26:20;8.43;;;4.43;;
51913;SDS011;37940;53.002;6.930;2022-09-09T08:28:48;8.15;;;3.97;;
51913;SDS011;37940;53.002;6.930;2022-09-09T08:31:22;8.10;;;4.18;;
51913;SDS011;37940;53.002;6.930;2022-09-09T08:33:50;8.32;;;4.28;;
51913;SDS011;37940;53.002;6.930;2022-09-09T08:36:21;8.30;;;4.40;;
51913;SDS011;37940;53.002;6.930;2022-09-09T08:38:51;7.05;;;4.10;;
51913;SDS011;37940;53.002;6.930;2022-09-09T08:55:15;10.27;;;4.53;;
51913;SDS011;37940;53.002;6.930;2022-09-09T08:57:56;7.40;;;3.88;;
51913;SDS011;37940;53.002;6.930;2022-09-09T09:00:33;8.77;;;3.63;;
51913;SDS011;37940;53.002;6.930;2022-09-09T09:03:07;9.57;;;4.10;;
51913;SDS011;37940;53.002;6.930;2022-09-09T09:05:51;8.23;;;3.72;;
51913;SDS011;37940;53.002;6.930;2022-09-09T09:08:35;7.75;;;3.63;;
51913;SDS011;37940;53.002;6.930;2022-09-09T09:11:16;9.60;;;3.80;;
51913;SDS011;37940;53.002;6.930;2022-09-09T09:16:30;7.28;;;3.30;;
51913;SDS011;37940;53.002;6.930;2022-09-09T09:18:59;8.43;;;3.55;;
51913;SDS011;37940;53.002;6.930;2022-09-09T09:21:44;7.68;;;3.08;;
51913;SDS011;37940;53.002;6.930;2022-09-09T09:26:57;8.13;;;2.92;;
51913;SDS011;37940;53.002;6.930;2022-09-09T09:29:32;7.20;;;3.17;;
51913;SDS011;37940;53.002;6.930;2022-09-09T09:32:00;9.65;;;3.75;;
51913;SDS011;37940;53.002;6.930;2022-09-09T09:34:28;10.02;;;3.13;;
51913;SDS011;37940;53.002;6.930;2022-09-09T09:36:55;7.68;;;2.90;;
51913;SDS011;37940;53.002;6.930;2022-09-09T09:39:29;7.93;;;3.20;;
51913;SDS011;37940;53.002;6.930;2022-09-09T09:41:57;10.85;;;2.95;;
51913;SDS011;37940;53.002;6.930;2022-09-09T09:44:28;8.68;;;2.70;;
51913;SDS011;37940;53.002;6.930;2022-09-09T09:47:05;8.02;;;2.80;;
51913;SDS011;37940;53.002;6.930;2022-09-09T09:49:38;6.95;;;2.50;;
51913;SDS011;37940;53.002;6.930;2022-09-09T09:52:05;11.43;;;3.15;;
51913;SDS011;37940;53.002;6.930;2022-09-09T09:54:33;10.27;;;3.10;;
51913;SDS011;37940;53.002;6.930;2022-09-09T09:57:08;11.05;;;3.63;;
51913;SDS011;37940;53.002;6.930;2022-09-09T09:59:35;7.30;;;2.30;;
51913;SDS011;37940;53.002;6.930;2022-09-09T10:02:21;10.07;;;2.88;;
51913;SDS011;37940;53.002;6.930;2022-09-09T10:05:02;9.02;;;2.70;;
51913;SDS011;37940;53.002;6.930;2022-09-09T10:07:29;8.43;;;2.38;;
51913;SDS011;37940;53.002;6.930;2022-09-09T10:09:56;8.48;;;2.42;;
51913;SDS011;37940;53.002;6.930;2022-09-09T10:15:34;13.43;;;3.03;;
51913;SDS011;37940;53.002;6.930;2022-09-09T10:21:07;8.23;;;2.50;;
51913;SDS011;37940;53.002;6.930;2022-09-09T10:37:13;6.65;;;2.17;;
51913;SDS011;37940;53.002;6.930;2022-09-09T10:39:55;6.38;;;2.22;;
51913;SDS011;37940;53.002;6.930;2022-09-09T10:42:47;9.35;;;2.35;;
51913;SDS011;37940;53.002;6.930;2022-09-09T10:45:34;7.70;;;2.33;;
51913;SDS011;37940;53.002;6.930;2022-09-09T10:48:12;6.88;;;1.90;;
51913;SDS011;37940;53.002;6.930;2022-09-09T10:50:53;7.32;;;2.60;;
51913;SDS011;37940;53.002;6.930;2022-09-09T10:56:21;7.35;;;2.03;;
51913;SDS011;37940;53.002;6.930;2022-09-09T10:59:10;7.05;;;1.90;;
51913;SDS011;37940;53.002;6.930;2022-09-09T11:01:43;9.17;;;2.50;;
51913;SDS011;37940;53.002;6.930;2022-09-09T11:04:23;7.78;;;2.25;;
51913;SDS011;37940;53.002;6.930;2022-09-09T11:06:56;8.85;;;2.10;;
51913;SDS011;37940;53.002;6.930;2022-09-09T11:09:26;9.35;;;2.17;;
51913;SDS011;37940;53.002;6.930;2022-09-09T11:11:56;8.73;;;2.30;;
51913;SDS011;37940;53.002;6.930;2022-09-09T11:16:59;6.15;;;1.80;;
51913;SDS011;37940;53.002;6.930;2022-09-09T11:19:35;9.45;;;2.00;;
51913;SDS011;37940;53.002;6.930;2022-09-09T11:24:38;6.20;;;2.33;;
51913;SDS011;37940;53.002;6.930;2022-09-09T11:38:19;5.70;;;2.03;;
51913;SDS011;37940;53.002;6.930;2022-09-09T11:40:59;6.82;;;1.70;;
51913;SDS011;37940;53.002;6.930;2022-09-09T11:43:31;5.93;;;1.80;;
51913;SDS011;37940;53.002;6.930;2022-09-09T11:46:03;8.00;;;1.98;;
51913;SDS011;37940;53.002;6.930;2022-09-09T11:48:32;5.30;;;1.73;;
51913;SDS011;37940;53.002;6.930;2022-09-09T11:51:06;7.00;;;1.63;;
51913;SDS011;37940;53.002;6.930;2022-09-09T11:53:34;4.43;;;1.67;;
51913;SDS011;37940;53.002;6.930;2022-09-09T11:56:12;9.10;;;1.80;;
51913;SDS011;37940;53.002;6.930;2022-09-09T11:59:02;7.82;;;1.75;;
51913;SDS011;37940;53.002;6.930;2022-09-09T12:01:39;4.95;;;1.50;;
51913;SDS011;37940;53.002;6.930;2022-09-09T12:12:27;6.25;;;1.58;;
51913;SDS011;37940;53.002;6.930;2022-09-09T12:14:56;5.45;;;1.58;;
51913;SDS011;37940;53.002;6.930;2022-09-09T12:17:25;5.32;;;1.48;;
51913;SDS011;37940;53.002;6.930;2022-09-09T12:23:04;6.18;;;1.70;;
51913;SDS011;37940;53.002;6.930;2022-09-09T12:31:54;7.18;;;1.90;;
51913;SDS011;37940;53.002;6.930;2022-09-09T12:34:39;7.22;;;2.03;;
51913;SDS011;37940;53.002;6.930;2022-09-09T12:37:35;6.32;;;1.92;;
51913;SDS011;37940;53.002;6.930;2022-09-09T12:40:23;4.63;;;1.40;;
51913;SDS011;37940;53.002;6.930;2022-09-09T12:42:50;3.92;;;1.45;;
51913;SDS011;37940;53.002;6.930;2022-09-09T12:50:34;7.55;;;1.45;;
51913;SDS011;37940;53.002;6.930;2022-09-09T12:53:35;6.65;;;1.60;;
51913;SDS011;37940;53.002;6.930;2022-09-09T12:58:24;5.18;;;1.65;;
51913;SDS011;37940;53.002;6.930;2022-09-09T13:00:53;4.40;;;1.45;;
51913;SDS011;37940;53.002;6.930;2022-09-09T13:03:24;7.03;;;1.73;;
51913;SDS011;37940;53.002;6.930;2022-09-09T13:05:51;4.85;;;1.50;;
51913;SDS011;37940;53.002;6.930;2022-09-09T13:08:18;6.60;;;2.10;;
51913;SDS011;37940;53.002;6.930;2022-09-09T13:10:51;4.07;;;1.60;;
51913;SDS011;37940;53.002;6.930;2022-09-09T13:13:39;6.82;;;1.77;;
51913;SDS011;37940;53.002;6.930;2022-09-09T13:16:18;3.65;;;1.30;;
51913;SDS011;37940;53.002;6.930;2022-09-09T13:18:55;12.00;;;4.78;;
51913;SDS011;37940;53.002;6.930;2022-09-09T13:21:30;4.60;;;1.50;;
51913;SDS011;37940;53.002;6.930;2022-09-09T13:24:00;6.10;;;1.70;;
51913;SDS011;37940;53.002;6.930;2022-09-09T13:26:28;5.32;;;1.63;;
51913;SDS011;37940;53.002;6.930;2022-09-09T13:28:55;4.32;;;1.40;;
51913;SDS011;37940;53.002;6.930;2022-09-09T13:31:45;6.57;;;1.70;;
51913;SDS011;37940;53.002;6.930;2022-09-09T13:34:12;6.95;;;1.58;;
51913;SDS011;37940;53.002;6.930;2022-09-09T13:37:01;6.07;;;1.63;;
51913;SDS011;37940;53.002;6.930;2022-09-09T13:39:30;6.10;;;1.40;;
51913;SDS011;37940;53.002;6.930;2022-09-09T13:41:59;8.60;;;1.30;;
51913;SDS011;37940;53.002;6.930;2022-09-09T13:44:31;7.40;;;1.08;;
51913;SDS011;37940;53.002;6.930;2022-09-09T13:47:06;4.13;;;0.95;;
51913;SDS011;37940;53.002;6.930;2022-09-09T13:49:45;9.38;;;1.40;;
51913;SDS011;37940;53.002;6.930;2022-09-09T13:52:15;7.50;;;1.65;;
51913;SDS011;37940;53.002;6.930;2022-09-09T13:54:50;6.03;;;1.70;;
51913;SDS011;37940;53.002;6.930;2022-09-09T13:57:20;24.30;;;3.33;;
51913;SDS011;37940;53.002;6.930;2022-09-09T13:59:48;8.35;;;2.20;;
51913;SDS011;37940;53.002;6.930;2022-09-09T14:02:14;7.57;;;2.15;;
51913;SDS011;37940;53.002;6.930;2022-09-09T14:04:42;9.93;;;1.90;;
51913;SDS011;37940;53.002;6.930;2022-09-09T14:07:11;8.15;;;1.88;;
51913;SDS011;37940;53.002;6.930;2022-09-09T14:09:39;10.75;;;2.00;;
51913;SDS011;37940;53.002;6.930;2022-09-09T14:12:05;6.95;;;1.95;;
51913;SDS011;37940;53.002;6.930;2022-09-09T14:14:35;7.63;;;1.58;;
51913;SDS011;37940;53.002;6.930;2022-09-09T14:17:01;4.50;;;1.80;;
51913;SDS011;37940;53.002;6.930;2022-09-09T14:19:28;6.85;;;1.80;;
51913;SDS011;37940;53.002;6.930;2022-09-09T14:21:54;5.18;;;1.58;;
51913;SDS011;37940;53.002;6.930;2022-09-09T14:24:19;6.43;;;1.98;;
51913;SDS011;37940;53.002;6.930;2022-09-09T14:26:45;4.85;;;1.85;;
51913;SDS011;37940;53.002;6.930;2022-09-09T14:29:11;5.85;;;1.85;;
51913;SDS011;37940;53.002;6.930;2022-09-09T14:31:36;4.95;;;2.00;;
51913;SDS011;37940;53.002;6.930;2022-09-09T14:34:02;4.95;;;1.77;;
51913;SDS011;37940;53.002;6.930;2022-09-09T14:36:27;7.63;;;1.80;;
51913;SDS011;37940;53.002;6.930;2022-09-09T14:38:53;8.10;;;1.98;;
51913;SDS011;37940;53.002;6.930;2022-09-09T14:41:19;4.45;;;1.80;;
51913;SDS011;37940;53.002;6.930;2022-09-09T14:43:47;4.78;;;1.98;;
51913;SDS011;37940;53.002;6.930;2022-09-09T14:46:15;5.45;;;1.73;;
51913;SDS011;37940;53.002;6.930;2022-09-09T14:48:42;5.30;;;1.70;;
51913;SDS011;37940;53.002;6.930;2022-09-09T14:51:16;5.32;;;1.60;;
51913;SDS011;37940;53.002;6.930;2022-09-09T14:53:44;4.38;;;1.40;;
51913;SDS011;37940;53.002;6.930;2022-09-09T14:56:12;3.83;;;1.10;;
51913;SDS011;37940;53.002;6.930;2022-09-09T14:58:41;4.18;;;0.88;;
51913;SDS011;37940;53.002;6.930;2022-09-09T15:01:08;3.65;;;0.93;;
51913;SDS011;37940;53.002;6.930;2022-09-09T15:03:36;2.38;;;0.63;;
51913;SDS011;37940;53.002;6.930;2022-09-09T15:06:06;1.83;;;0.70;;
51913;SDS011;37940;53.002;6.930;2022-09-09T15:08:36;2.17;;;0.88;;
51913;SDS011;37940;53.002;6.930;2022-09-09T15:11:03;1.02;;;0.35;;
51913;SDS011;37940;53.002;6.930;2022-09-09T15:13:32;1.98;;;0.80;;
51913;SDS011;37940;53.002;6.930;2022-09-09T15:16:05;2.65;;;0.63;;
51913;SDS011;37940;53.002;6.930;2022-09-09T15:18:35;1.42;;;0.70;;
51913;SDS011;37940;53.002;6.930;2022-09-09T15:21:02;1.35;;;0.70;;
51913;SDS011;37940;53.002;6.930;2022-09-09T15:23:33;1.55;;;0.70;;
51913;SDS011;37940;53.002;6.930;2022-09-09T15:25:59;1.85;;;0.47;;
51913;SDS011;37940;53.002;6.930;2022-09-09T15:28:25;4.28;;;0.70;;
51913;SDS011;37940;53.002;6.930;2022-09-09T15:30:51;1.75;;;0.80;;
51913;SDS011;37940;53.002;6.930;2022-09-09T15:33:19;2.25;;;0.98;;
51913;SDS011;37940;53.002;6.930;2022-09-09T15:35:46;2.60;;;0.98;;
51913;SDS011;37940;53.002;6.930;2022-09-09T15:38:12;1.95;;;1.00;;
51913;SDS011;37940;53.002;6.930;2022-09-09T15:40:41;2.55;;;1.35;;
51913;SDS011;37940;53.002;6.930;2022-09-09T15:43:08;3.85;;;1.30;;
51913;SDS011;37940;53.002;6.930;2022-09-09T15:45:39;5.22;;;1.60;;
51913;SDS011;37940;53.002;6.930;2022-09-09T15:48:04;3.72;;;1.40;;
51913;SDS011;37940;53.002;6.930;2022-09-09T15:50:30;4.22;;;1.40;;
51913;SDS011;37940;53.002;6.930;2022-09-09T15:52:57;5.93;;;1.73;;
51913;SDS011;37940;53.002;6.930;2022-09-09T15:55:26;2.60;;;1.27;;
51913;SDS011;37940;53.002;6.930;2022-09-09T15:57:52;3.00;;;1.30;;
51913;SDS011;37940;53.002;6.930;2022-09-09T16:00:18;4.65;;;1.50;;
51913;SDS011;37940;53.002;6.930;2022-09-09T16:02:46;4.15;;;1.70;;
51913;SDS011;37940;53.002;6.930;2022-09-09T16:05:12;8.80;;;2.75;;
51913;SDS011;37940;53.002;6.930;2022-09-09T16:07:38;3.40;;;1.40;;
51913;SDS011;37940;53.002;6.930;2022-09-09T16:10:04;4.25;;;1.50;;
51913;SDS011;37940;53.002;6.930;2022-09-09T16:12:30;4.70;;;1.60;;
51913;SDS011;37940;53.002;6.930;2022-09-09T16:14:56;3.72;;;1.38;;
51913;SDS011;37940;53.002;6.930;2022-09-09T16:17:22;3.80;;;1.50;;
51913;SDS011;37940;53.002;6.930;2022-09-09T16:19:48;5.97;;;1.50;;
51913;SDS011;37940;53.002;6.930;2022-09-09T16:22:13;5.50;;;1.60;;
51913;SDS011;37940;53.002;6.930;2022-09-09T16:24:40;4.07;;;1.60;;
51913;SDS011;37940;53.002;6.930;2022-09-09T16:27:06;4.65;;;1.60;;
51913;SDS011;37940;53.002;6.930;2022-09-09T16:29:32;3.33;;;1.50;;
51913;SDS011;37940;53.002;6.930;2022-09-09T16:31:58;5.03;;;1.60;;
51913;SDS011;37940;53.002;6.930;2022-09-09T16:34:25;5.88;;;2.30;;
51913;SDS011;37940;53.002;6.930;2022-09-09T16:36:50;4.65;;;1.80;;
51913;SDS011;37940;53.002;6.930;2022-09-09T16:39:20;5.28;;;1.60;;
51913;SDS011;37940;53.002;6.930;2022-09-09T16:41:46;3.53;;;1.70;;
51913;SDS011;37940;53.002;6.930;2022-09-09T16:44:14;4.28;;;1.73;;
51913;SDS011;37940;53.002;6.930;2022-09-09T16:46:43;4.63;;;1.77;;
51913;SDS011;37940;53.002;6.930;2022-09-09T16:49:11;5.25;;;1.83;;
51913;SDS011;37940;53.002;6.930;2022-09-09T16:51:39;5.47;;;1.85;;
51913;SDS011;37940;53.002;6.930;2022-09-09T16:54:07;3.47;;;1.70;;
51913;SDS011;37940;53.002;6.930;2022-09-09T16:56:35;4.78;;;1.90;;
51913;SDS011;37940;53.002;6.930;2022-09-09T16:59:03;4.60;;;2.20;;
51913;SDS011;37940;53.002;6.930;2022-09-09T17:01:32;4.00;;;1.75;;
51913;SDS011;37940;53.002;6.930;2022-09-09T17:04:02;3.90;;;1.73;;
51913;SDS011;37940;53.002;6.930;2022-09-09T17:06:30;6.43;;;2.28;;
51913;SDS011;37940;53.002;6.930;2022-09-09T17:09:00;4.90;;;1.80;;
51913;SDS011;37940;53.002;6.930;2022-09-09T17:11:28;4.53;;;1.67;;
51913;SDS011;37940;53.002;6.930;2022-09-09T17:13:55;4.90;;;1.95;;
51913;SDS011;37940;53.002;6.930;2022-09-09T17:16:24;5.60;;;2.03;;
51913;SDS011;37940;53.002;6.930;2022-09-09T17:18:52;5.90;;;1.95;;
51913;SDS011;37940;53.002;6.930;2022-09-09T17:21:19;4.07;;;1.92;;
51913;SDS011;37940;53.002;6.930;2022-09-09T17:23:47;4.90;;;1.88;;